Time;durP1;ratioP1;P1;durP2;ratioP2;P2;SDS_P1;SDS_P2;PMS_P1;PMS_P2;Temp;Humidity;BMP_temperature;BMP_pressure;BME280_temperature;BME280_humidity;BME280_pressure;Samples;Min_cycle;Max_cycle;Signal;HPM_P1;HPM_P2
2022/12/27 00:01:12;;;;;;;;;;;5.40;99.90;;;;;;5039537;28;19913;-75
2022/12/27 00:03:38;;;;;;;;;;;5.40;99.90;;;;;;5040581;28;19916;-73
2022/12/27 00:06:11;;;;;;;;;;;5.40;99.90;;;;;;5035175;28;20327;-74
2022/12/27 00:08:36;;;;;;;;;;;5.50;99.90;;;;;;5037645;28;20280;-73
2022/12/27 00:11:09;;;;;;;;;;;5.40;99.90;;;;;;5033701;28;19909;-73
2022/12/27 00:13:35;;;;;;;;;;;5.50;99.90;;;;;;5042643;28;19948;-74
2022/12/27 00:16:08;;;;;;;;;;;5.40;99.90;;;;;;5041256;28;19951;-73
2022/12/27 00:18:33;;;;;;;;;;;5.40;99.90;;;;;;5043723;28;19990;-73
2022/12/27 00:20:59;;;;;;;;;;;5.40;99.90;;;;;;5041856;28;19963;-73
2022/12/27 00:23:25;;;;;;;;;;;5.40;99.90;;;;;;5043202;28;19927;-72
2022/12/27 00:25:51;;;;;;;;;;;5.40;99.90;;;;;;5041736;28;20371;-73
2022/12/27 00:28:16;;;;;;;;;;;5.30;99.90;;;;;;5039684;28;19917;-73
2022/12/27 00:30:42;;;;;;;;;;;5.30;99.90;;;;;;5038435;28;20016;-73
2022/12/27 00:33:08;;;;;;;;;;;5.30;99.90;;;;;;5033995;28;19937;-73
2022/12/27 00:35:33;;;;;;;;;;;5.30;99.90;;;;;;5036748;28;20443;-73
2022/12/27 00:37:58;;;;;;;;;;;5.30;99.90;;;;;;5040308;28;20619;-71
2022/12/27 00:40:24;;;;;;;;;;;5.30;99.90;;;;;;5050223;28;19920;-75
2022/12/27 00:42:49;;;;;;;;;;;5.30;99.90;;;;;;5046925;28;19974;-74
2022/12/27 00:45:15;;;;;;;;;;;5.40;99.90;;;;;;5040317;28;19916;-74
2022/12/27 00:47:40;;;;;;;;;;;5.40;99.90;;;;;;5043119;28;19923;-73
2022/12/27 00:50:06;;;;;;;;;;;5.40;99.90;;;;;;5036010;28;19936;-73
2022/12/27 00:52:31;;;;;;;;;;;5.50;99.90;;;;;;5041639;28;19913;-72
2022/12/27 00:54:57;;;;;;;;;;;5.50;99.90;;;;;;5039388;28;19919;-73
2022/12/27 00:57:22;;;;;;;;;;;5.40;99.90;;;;;;5034756;28;20206;-73
2022/12/27 00:59:48;;;;;;;;;;;5.50;99.90;;;;;;5036362;28;19931;-73
2022/12/27 01:02:13;;;;;;;;;;;5.50;99.90;;;;;;5037016;28;19952;-73
2022/12/27 01:04:39;;;;;;;;;;;5.50;99.90;;;;;;5037741;28;19917;-73
2022/12/27 01:07:04;;;;;;;;;;;5.50;99.90;;;;;;5033910;28;20647;-72
2022/12/27 01:09:29;;;;;;;;;;;5.50;99.90;;;;;;5040379;28;20448;-73
2022/12/27 01:11:55;;;;;;;;;;;5.50;99.90;;;;;;5036373;28;19917;-72
2022/12/27 01:14:20;;;;;;;;;;;5.50;99.90;;;;;;5039760;28;19935;-73
2022/12/27 01:16:46;;;;;;;;;;;5.50;99.90;;;;;;5036990;28;19909;-73
2022/12/27 01:19:11;;;;;;;;;;;5.50;99.90;;;;;;5038396;28;19963;-74
2022/12/27 01:21:37;;;;;;;;;;;5.60;99.90;;;;;;5039977;28;19926;-73
2022/12/27 01:24:04;;;;;;;;;;;5.70;99.90;;;;;;5043523;28;20019;-73
2022/12/27 01:26:29;;;;;;;;;;;5.80;99.90;;;;;;5039870;28;20649;-71
2022/12/27 01:28:55;;;;;;;;;;;5.90;99.90;;;;;;5036011;28;19939;-73
2022/12/27 01:31:21;;;;;;;;;;;6.00;99.90;;;;;;5036140;28;20288;-74
2022/12/27 01:33:47;;;;;;;;;;;5.90;99.90;;;;;;5040798;28;20303;-73
2022/12/27 01:36:14;;;;;;;;;;;5.90;99.90;;;;;;5038667;28;19909;-72
2022/12/27 01:38:42;;;;;;;;;;;5.90;99.90;;;;;;5043206;28;20007;-72
2022/12/27 01:42:50;;;;;;;;;;;5.90;99.90;;;;;;5045749;28;20013;-73
2022/12/27 01:43:57;;;;;;;;;;;6.00;99.90;;;;;;5043924;28;20297;-73
2022/12/27 01:46:22;;;;;;;;;;;6.00;99.90;;;;;;5041632;28;19916;-74
2022/12/27 01:48:48;;;;;;;;;;;6.00;99.90;;;;;;5036299;28;19936;-72
2022/12/27 01:51:14;;;;;;;;;;;6.10;99.90;;;;;;5035270;28;19909;-72
2022/12/27 01:53:41;;;;;;;;;;;6.10;99.90;;;;;;5034278;28;19913;-73
2022/12/27 01:56:28;;;;;;;;;;;6.00;99.90;;;;;;5039692;28;19952;-73
2022/12/27 01:58:59;;;;;;;;;;;6.00;99.90;;;;;;5053120;28;19913;-73
2022/12/27 02:01:45;;;;;;;;;;;6.20;99.90;;;;;;5038817;28;19940;-73
2022/12/27 02:04:17;;;;;;;;;;;6.00;99.90;;;;;;5047032;28;19921;-73
2022/12/27 02:06:44;;;;;;;;;;;6.00;99.90;;;;;;5039785;28;20640;-74
2022/12/27 02:09:28;;;;;;;;;;;6.20;99.90;;;;;;5031722;28;19917;-74
2022/12/27 02:11:55;;;;;;;;;;;6.30;99.90;;;;;;5033694;28;19984;-74
2022/12/27 02:14:23;;;;;;;;;;;6.10;99.90;;;;;;5038575;28;19999;-73
2022/12/27 02:16:49;;;;;;;;;;;6.20;99.90;;;;;;5037061;28;21036;-73
2022/12/27 02:19:30;;;;;;;;;;;6.20;99.90;;;;;;5038980;28;20616;-72
2022/12/27 02:22:02;;;;;;;;;;;6.00;99.90;;;;;;5028284;28;19921;-74
2022/12/27 02:24:51;;;;;;;;;;;6.10;99.90;;;;;;5040527;28;19920;-73
2022/12/27 02:27:19;;;;;;;;;;;6.10;99.90;;;;;;5014420;28;19913;-74
2022/12/27 02:29:52;;;;;;;;;;;6.10;99.90;;;;;;5051619;28;19981;-72
2022/12/27 02:32:29;;;;;;;;;;;6.10;99.90;;;;;;5042201;28;19987;-72
2022/12/27 02:35:07;;;;;;;;;;;6.20;99.90;;;;;;5047021;28;20409;-74
2022/12/27 02:37:33;;;;;;;;;;;6.30;99.90;;;;;;5055589;28;19920;-71
2022/12/27 02:53:02;;;;;;;;;;;6.40;99.90;;;;;;5045114;28;19917;-74
2022/12/27 02:54:01;;;;;;;;;;;6.30;99.90;;;;;;5041763;28;19938;-74
2022/12/27 02:59:24;;;;;;;;;;;6.30;99.90;;;;;;5054935;28;19927;-72
2022/12/27 03:05:28;;;;;;;;;;;6.30;99.90;;;;;;5021310;28;19917;-74
2022/12/27 03:08:08;;;;;;;;;;;6.30;99.90;;;;;;5043654;28;19909;-75
2022/12/27 03:16:59;;;;;;;;;;;6.30;99.90;;;;;;5058223;28;19920;-74
2022/12/27 03:33:11;;;;;;;;;;;6.50;99.90;;;;;;5039282;28;19920;-72
2022/12/27 03:33:17;;;;;;;;;;;6.40;99.90;;;;;;5045853;28;19924;-73
2022/12/27 03:38:01;;;;;;;;;;;6.40;99.90;;;;;;5044128;28;19912;-74
2022/12/27 03:38:33;;;;;;;;;;;6.50;99.90;;;;;;5056927;28;19909;-73
2022/12/27 03:43:44;;;;;;;;;;;6.70;99.90;;;;;;5048507;28;19932;-73
2022/12/27 03:49:15;;;;;;;;;;;6.70;99.90;;;;;;5035075;28;20460;-72
2022/12/27 03:51:48;;;;;;;;;;;6.70;99.90;;;;;;5044164;28;19940;-72
2022/12/27 03:54:25;;;;;;;;;;;6.70;99.90;;;;;;5036670;28;20482;-72
2022/12/27 03:57:13;;;;;;;;;;;6.70;99.90;;;;;;5040664;28;19928;-74
2022/12/27 03:59:39;;;;;;;;;;;6.80;99.90;;;;;;5033650;28;19967;-73
2022/12/27 04:02:05;;;;;;;;;;;6.90;99.90;;;;;;5042529;28;19963;-73
2022/12/27 04:04:30;;;;;;;;;;;6.80;99.90;;;;;;5033460;28;19917;-75
2022/12/27 04:06:56;;;;;;;;;;;6.70;99.90;;;;;;5039682;28;19916;-73
2022/12/27 04:36:44;;;;;;;;;;;6.70;99.90;;;;;;5063475;28;19927;-73
2022/12/27 04:39:09;;;;;;;;;;;6.80;99.90;;;;;;5066764;28;19917;-73
2022/12/27 04:55:16;;;;;;;;;;;6.80;99.90;;;;;;5069421;28;20597;-73
2022/12/27 04:57:41;;;;;;;;;;;6.70;99.90;;;;;;5058331;28;19909;-74
2022/12/27 05:02:51;;;;;;;;;;;6.60;99.90;;;;;;4992011;28;1835965;-74
2022/12/27 05:05:16;;;;;;;;;;;6.60;99.90;;;;;;5049184;28;19940;-74
2022/12/27 05:15:55;;;;;;;;;;;6.60;99.90;;;;;;5035618;28;19920;-72
2022/12/27 05:18:21;;;;;;;;;;;6.60;99.90;;;;;;5047169;28;19909;-73
2022/12/27 05:20:46;;;;;;;;;;;6.60;99.90;;;;;;5056141;28;19913;-72
2022/12/27 05:25:56;;;;;;;;;;;6.50;99.90;;;;;;5032848;28;19971;-73
2022/12/27 05:28:21;;;;;;;;;;;6.50;99.90;;;;;;5037928;28;19912;-73
2022/12/27 05:30:47;;;;;;;;;;;6.50;99.90;;;;;;5043411;28;20379;-73
2022/12/27 05:33:12;;;;;;;;;;;6.50;99.90;;;;;;5035043;28;20614;-72
2022/12/27 05:35:38;;;;;;;;;;;6.50;99.90;;;;;;5037234;28;19913;-75
2022/12/27 05:38:04;;;;;;;;;;;6.50;99.90;;;;;;5038299;28;19923;-72
2022/12/27 05:40:29;;;;;;;;;;;6.50;99.90;;;;;;5038447;28;19909;-72
2022/12/27 05:42:56;;;;;;;;;;;6.50;99.90;;;;;;5034679;28;19916;-72
2022/12/27 05:45:22;;;;;;;;;;;6.50;99.90;;;;;;5037111;28;19909;-73
2022/12/27 05:47:47;;;;;;;;;;;6.50;99.90;;;;;;5042888;28;20303;-72
2022/12/27 05:50:13;;;;;;;;;;;6.40;99.90;;;;;;5040482;28;19929;-73
2022/12/27 05:52:38;;;;;;;;;;;6.50;99.90;;;;;;5044176;28;19960;-74
2022/12/27 05:55:04;;;;;;;;;;;6.50;99.90;;;;;;5035758;28;19917;-72
2022/12/27 05:57:30;;;;;;;;;;;6.50;99.90;;;;;;5043472;28;19923;-72
2022/12/27 05:59:56;;;;;;;;;;;6.50;99.90;;;;;;5046420;28;19916;-71
2022/12/27 06:02:22;;;;;;;;;;;6.40;99.90;;;;;;5044487;28;20264;-73
2022/12/27 06:04:47;;;;;;;;;;;6.40;99.90;;;;;;5048403;28;20595;-73
2022/12/27 06:07:13;;;;;;;;;;;6.50;99.90;;;;;;5041423;28;20625;-73
2022/12/27 06:09:39;;;;;;;;;;;6.40;99.90;;;;;;5046264;28;20477;-72
2022/12/27 06:12:05;;;;;;;;;;;6.40;99.90;;;;;;5044671;28;19912;-73
2022/12/27 06:14:30;;;;;;;;;;;6.40;99.90;;;;;;5046320;28;19920;-74
2022/12/27 06:16:55;;;;;;;;;;;6.30;99.90;;;;;;5047281;28;19909;-74
2022/12/27 06:19:21;;;;;;;;;;;6.30;99.90;;;;;;5054075;28;19913;-73
2022/12/27 06:21:47;;;;;;;;;;;6.40;99.90;;;;;;5059688;28;19948;-72
2022/12/27 06:24:13;;;;;;;;;;;6.40;99.90;;;;;;5057996;28;19984;-72
2022/12/27 06:26:38;;;;;;;;;;;6.30;99.90;;;;;;5058402;28;19917;-73
2022/12/27 06:29:04;;;;;;;;;;;6.30;99.90;;;;;;5051781;28;19913;-72
2022/12/27 06:31:30;;;;;;;;;;;6.30;99.90;;;;;;5046537;28;19928;-71
2022/12/27 06:33:56;;;;;;;;;;;6.40;99.90;;;;;;5042517;28;20538;-75
2022/12/27 06:36:23;;;;;;;;;;;6.40;99.90;;;;;;5039594;28;19915;-72
2022/12/27 06:38:48;;;;;;;;;;;6.40;99.90;;;;;;5039642;28;21041;-72
2022/12/27 06:41:18;;;;;;;;;;;6.40;99.90;;;;;;5048868;28;19928;-72
2022/12/27 06:43:44;;;;;;;;;;;6.30;99.90;;;;;;5047320;28;19913;-73
2022/12/27 06:46:11;;;;;;;;;;;6.40;99.90;;;;;;5048015;28;19912;-73
2022/12/27 06:48:36;;;;;;;;;;;6.30;99.90;;;;;;5041434;28;20441;-73
2022/12/27 06:51:03;;;;;;;;;;;6.20;99.90;;;;;;5048253;28;19920;-73
2022/12/27 06:53:28;;;;;;;;;;;6.20;99.90;;;;;;5048675;28;19913;-73
2022/12/27 06:55:54;;;;;;;;;;;6.20;99.90;;;;;;5045373;28;19920;-73
2022/12/27 06:58:19;;;;;;;;;;;6.30;99.90;;;;;;5042185;28;19913;-73
2022/12/27 07:00:44;;;;;;;;;;;6.20;99.90;;;;;;5048191;28;19916;-72
2022/12/27 07:03:10;;;;;;;;;;;6.20;99.90;;;;;;5042267;28;19917;-72
2022/12/27 07:05:36;;;;;;;;;;;6.10;99.90;;;;;;5047466;28;20007;-73
2022/12/27 07:08:02;;;;;;;;;;;6.10;99.90;;;;;;5043874;28;19909;-72
2022/12/27 07:10:27;;;;;;;;;;;6.10;99.90;;;;;;5048317;28;19915;-73
2022/12/27 07:12:53;;;;;;;;;;;6.10;99.90;;;;;;5037483;28;19928;-73
2022/12/27 07:15:18;;;;;;;;;;;6.10;99.90;;;;;;5041672;28;19959;-75
2022/12/27 07:17:44;;;;;;;;;;;6.00;99.90;;;;;;5047568;28;20385;-74
2022/12/27 07:20:09;;;;;;;;;;;6.10;99.90;;;;;;5045658;28;19913;-74
2022/12/27 07:22:35;;;;;;;;;;;6.10;99.90;;;;;;5047011;28;19928;-73
2022/12/27 07:25:00;;;;;;;;;;;6.20;99.90;;;;;;5047336;28;19909;-72
2022/12/27 07:27:26;;;;;;;;;;;6.20;99.90;;;;;;5041160;28;20400;-74
2022/12/27 07:29:51;;;;;;;;;;;6.20;99.90;;;;;;5043054;28;20512;-74
2022/12/27 07:32:17;;;;;;;;;;;6.10;99.90;;;;;;5035243;28;20926;-72
2022/12/27 07:34:42;;;;;;;;;;;6.10;99.90;;;;;;5044995;28;19909;-71
2022/12/27 07:37:08;;;;;;;;;;;6.10;99.90;;;;;;5045982;28;19916;-73
2022/12/27 07:39:33;;;;;;;;;;;6.10;99.90;;;;;;5043326;28;19913;-77
2022/12/27 07:41:58;;;;;;;;;;;6.10;99.90;;;;;;5045809;28;19924;-73
2022/12/27 07:44:24;;;;;;;;;;;6.10;99.90;;;;;;5037500;28;19920;-75
2022/12/27 07:46:50;;;;;;;;;;;6.00;99.90;;;;;;5039433;28;19913;-73
2022/12/27 07:49:15;;;;;;;;;;;6.10;99.90;;;;;;5033522;28;19916;-71
2022/12/27 07:51:41;;;;;;;;;;;6.10;99.90;;;;;;5037836;28;19909;-73
2022/12/27 07:54:06;;;;;;;;;;;5.90;99.90;;;;;;5045784;28;19913;-72
2022/12/27 07:56:31;;;;;;;;;;;5.80;99.90;;;;;;5039867;28;20561;-73
2022/12/27 07:58:58;;;;;;;;;;;5.80;99.90;;;;;;5043453;28;19915;-74
2022/12/27 08:01:24;;;;;;;;;;;5.90;99.90;;;;;;5046796;28;20349;-73
2022/12/27 08:03:50;;;;;;;;;;;5.80;99.90;;;;;;5044287;28;19921;-74
2022/12/27 08:06:20;;;;;;;;;;;5.90;99.90;;;;;;5043281;28;19938;-75
2022/12/27 08:08:45;;;;;;;;;;;5.90;99.90;;;;;;5048337;28;19943;-74
2022/12/27 08:11:11;;;;;;;;;;;5.90;99.90;;;;;;5043106;28;20375;-73
2022/12/27 08:13:36;;;;;;;;;;;6.00;99.90;;;;;;5044250;28;20336;-74
2022/12/27 08:16:02;;;;;;;;;;;6.00;99.90;;;;;;5042851;28;19917;-74
2022/12/27 08:18:28;;;;;;;;;;;6.00;99.90;;;;;;5046488;28;20520;-75
2022/12/27 08:20:53;;;;;;;;;;;6.10;99.90;;;;;;5043268;28;19916;-76
2022/12/27 08:23:19;;;;;;;;;;;6.00;99.90;;;;;;5041940;28;19923;-72
2022/12/27 08:25:45;;;;;;;;;;;5.80;99.90;;;;;;5045900;28;19940;-75
2022/12/27 08:28:12;;;;;;;;;;;5.80;99.90;;;;;;5043820;28;20007;-76
2022/12/27 08:30:38;;;;;;;;;;;5.90;99.90;;;;;;5042223;28;19970;-72
2022/12/27 08:33:04;;;;;;;;;;;5.80;99.90;;;;;;5046240;28;20032;-73
2022/12/27 08:35:30;;;;;;;;;;;5.90;99.90;;;;;;5045748;28;19944;-71
2022/12/27 08:37:55;;;;;;;;;;;5.80;99.90;;;;;;5042154;28;19909;-74
2022/12/27 08:40:21;;;;;;;;;;;5.90;99.90;;;;;;5045862;28;19916;-74
2022/12/27 08:42:46;;;;;;;;;;;6.10;99.90;;;;;;5040245;28;20695;-74
2022/12/27 08:45:12;;;;;;;;;;;6.20;99.90;;;;;;5041229;28;19916;-74
2022/12/27 08:47:37;;;;;;;;;;;6.10;99.90;;;;;;5044326;28;19939;-74
2022/12/27 08:50:03;;;;;;;;;;;6.00;99.90;;;;;;5041283;28;20369;-74
2022/12/27 08:52:28;;;;;;;;;;;6.10;99.90;;;;;;5045382;28;19909;-73
2022/12/27 08:54:54;;;;;;;;;;;6.10;99.90;;;;;;5038716;28;19966;-73
2022/12/27 08:57:19;;;;;;;;;;;6.10;99.90;;;;;;5039904;28;20485;-73
2022/12/27 08:59:45;;;;;;;;;;;6.10;99.90;;;;;;5039435;28;19940;-73
2022/12/27 09:02:10;;;;;;;;;;;6.10;99.90;;;;;;5045235;28;20421;-74
2022/12/27 09:04:36;;;;;;;;;;;6.10;99.90;;;;;;5045783;28;19923;-73
2022/12/27 09:07:02;;;;;;;;;;;6.10;99.90;;;;;;5035893;28;19959;-73
2022/12/27 09:09:27;;;;;;;;;;;6.20;99.90;;;;;;5040986;28;19924;-72
2022/12/27 09:11:52;;;;;;;;;;;6.30;99.90;;;;;;5043176;28;19909;-72
2022/12/27 09:14:19;;;;;;;;;;;6.30;99.90;;;;;;5038962;28;20853;-75
2022/12/27 09:16:44;;;;;;;;;;;6.30;99.90;;;;;;5047075;28;19909;-73
2022/12/27 09:19:10;;;;;;;;;;;6.30;99.90;;;;;;5045304;28;19916;-72
2022/12/27 09:21:38;;;;;;;;;;;6.30;99.90;;;;;;5039233;28;20436;-75
2022/12/27 09:24:03;;;;;;;;;;;6.20;99.90;;;;;;5043347;28;19912;-74
2022/12/27 09:26:29;;;;;;;;;;;6.20;99.90;;;;;;5046731;28;19915;-72
2022/12/27 09:28:55;;;;;;;;;;;6.20;99.90;;;;;;5043000;28;19913;-73
2022/12/27 09:31:21;;;;;;;;;;;6.20;99.90;;;;;;5042914;28;19909;-73
2022/12/27 09:33:46;;;;;;;;;;;6.30;99.90;;;;;;5039354;28;19963;-73
2022/12/27 09:36:13;;;;;;;;;;;6.30;99.90;;;;;;5045561;28;19923;-74
2022/12/27 09:38:39;;;;;;;;;;;6.40;99.90;;;;;;5038915;28;19978;-73
2022/12/27 09:41:12;;;;;;;;;;;6.40;99.90;;;;;;5040477;28;20434;-72
2022/12/27 09:43:38;;;;;;;;;;;6.40;99.90;;;;;;5038435;28;19974;-72
2022/12/27 09:46:04;;;;;;;;;;;6.50;99.90;;;;;;5036202;28;20424;-74
2022/12/27 09:48:35;;;;;;;;;;;6.60;99.90;;;;;;5042483;28;19908;-73
2022/12/27 09:51:09;;;;;;;;;;;6.70;99.90;;;;;;5029520;28;19962;-72
2022/12/27 09:53:47;;;;;;;;;;;6.70;99.90;;;;;;5039741;28;19952;-74
2022/12/27 09:56:15;;;;;;;;;;;6.80;99.90;;;;;;5034053;28;19996;-74
2022/12/27 09:58:49;;;;;;;;;;;6.90;99.90;;;;;;5042938;28;19909;-74
2022/12/27 10:01:20;;;;;;;;;;;7.00;99.90;;;;;;5037473;28;19913;-74
2022/12/27 10:03:46;;;;;;;;;;;7.10;99.90;;;;;;5029996;28;20458;-74
2022/12/27 10:06:32;;;;;;;;;;;7.10;99.90;;;;;;5034531;28;20410;-71
2022/12/27 10:09:00;;;;;;;;;;;7.30;99.90;;;;;;5039211;28;19909;-74
2022/12/27 10:11:37;;;;;;;;;;;7.40;99.90;;;;;;5030948;28;20660;-73
2022/12/27 10:14:15;;;;;;;;;;;7.20;99.90;;;;;;5033140;28;19910;-74
2022/12/27 10:16:51;;;;;;;;;;;7.20;99.90;;;;;;5036720;28;19939;-73
2022/12/27 10:19:25;;;;;;;;;;;7.20;99.90;;;;;;5035855;28;19917;-73
2022/12/27 10:21:55;;;;;;;;;;;7.10;99.90;;;;;;5042078;28;19971;-73
2022/12/27 10:24:30;;;;;;;;;;;7.20;99.90;;;;;;5038720;28;19909;-75
2022/12/27 10:26:56;;;;;;;;;;;7.20;99.90;;;;;;5032880;28;19956;-72
2022/12/27 10:29:23;;;;;;;;;;;7.20;99.90;;;;;;5038710;28;20474;-72
2022/12/27 10:31:48;;;;;;;;;;;7.20;99.90;;;;;;5045878;28;21176;-73
2022/12/27 10:34:15;;;;;;;;;;;7.30;99.90;;;;;;5036893;28;20571;-74
2022/12/27 10:36:41;;;;;;;;;;;7.30;99.90;;;;;;5037779;28;19909;-73
2022/12/27 10:39:27;;;;;;;;;;;7.20;99.90;;;;;;5044014;28;20283;-73
2022/12/27 10:42:01;;;;;;;;;;;7.20;99.90;;;;;;5049309;28;19917;-72
2022/12/27 10:44:27;;;;;;;;;;;7.10;99.90;;;;;;5043434;28;19924;-74
2022/12/27 10:46:53;;;;;;;;;;;7.00;99.90;;;;;;5045746;28;20007;-73
2022/12/27 10:49:21;;;;;;;;;;;7.00;99.90;;;;;;5040383;28;19913;-73
2022/12/27 10:51:48;;;;;;;;;;;7.00;99.90;;;;;;5039602;28;19913;-74
2022/12/27 10:54:13;;;;;;;;;;;6.90;99.90;;;;;;5036500;28;19916;-74
2022/12/27 10:56:46;;;;;;;;;;;6.90;99.90;;;;;;5038017;28;19913;-73
2022/12/27 10:59:17;;;;;;;;;;;6.90;99.90;;;;;;5042494;28;19909;-74
2022/12/27 11:01:44;;;;;;;;;;;7.00;99.90;;;;;;5037214;28;19913;-73
2022/12/27 11:04:14;;;;;;;;;;;7.00;99.90;;;;;;5028981;28;19974;-75
2022/12/27 11:06:40;;;;;;;;;;;7.10;99.90;;;;;;5039583;28;19913;-72
2022/12/27 11:09:23;;;;;;;;;;;7.10;99.90;;;;;;5038095;28;19909;-74
2022/12/27 11:11:48;;;;;;;;;;;7.00;99.90;;;;;;5040989;28;20645;-73
2022/12/27 11:14:18;;;;;;;;;;;7.10;99.90;;;;;;5029493;28;20470;-73
2022/12/27 11:16:44;;;;;;;;;;;7.20;99.90;;;;;;5045533;28;20058;-74
2022/12/27 11:19:19;;;;;;;;;;;7.20;99.90;;;;;;5041181;28;19909;-75
2022/12/27 11:21:45;;;;;;;;;;;7.10;99.90;;;;;;5045704;28;19913;-73
2022/12/27 11:24:12;;;;;;;;;;;7.20;99.90;;;;;;5043748;28;19909;-73
2022/12/27 11:26:40;;;;;;;;;;;7.20;99.90;;;;;;5038058;28;19909;-74
2022/12/27 11:29:05;;;;;;;;;;;7.20;99.90;;;;;;5035674;28;19944;-73
2022/12/27 11:31:33;;;;;;;;;;;7.20;99.90;;;;;;5033167;28;19983;-73
2022/12/27 11:34:00;;;;;;;;;;;7.40;99.90;;;;;;5033818;28;19909;-75
2022/12/27 11:36:33;;;;;;;;;;;7.50;99.90;;;;;;5036495;28;20429;-74
2022/12/27 11:38:59;;;;;;;;;;;7.60;99.90;;;;;;5032152;28;20410;-72
2022/12/27 11:41:43;;;;;;;;;;;7.70;99.90;;;;;;5039640;28;19944;-74
2022/12/27 11:44:12;;;;;;;;;;;7.80;99.90;;;;;;5043337;28;19909;-74
2022/12/27 11:46:44;;;;;;;;;;;8.10;99.90;;;;;;5038613;28;20319;-73
2022/12/27 11:49:25;;;;;;;;;;;8.30;99.90;;;;;;5033094;28;19916;-73
2022/12/27 11:51:56;;;;;;;;;;;8.50;99.90;;;;;;5031723;28;19909;-73
2022/12/27 11:54:35;;;;;;;;;;;8.60;99.90;;;;;;5043934;28;19916;-72
2022/12/27 11:57:11;;;;;;;;;;;8.40;99.90;;;;;;5034626;28;19916;-73
2022/12/27 11:59:51;;;;;;;;;;;8.60;99.90;;;;;;5038759;28;19971;-73
2022/12/27 12:02:17;;;;;;;;;;;9.00;99.90;;;;;;5027225;28;20490;-74
2022/12/27 12:05:12;;;;;;;;;;;9.00;99.90;;;;;;5033434;28;19928;-74
2022/12/27 12:07:56;;;;;;;;;;;8.70;99.90;;;;;;4977015;28;19914;-72
2022/12/27 12:10:37;;;;;;;;;;;8.50;99.90;;;;;;5028738;28;19962;-74
2022/12/27 12:13:20;;;;;;;;;;;8.50;99.90;;;;;;5031087;28;19959;-74
2022/12/27 12:15:52;;;;;;;;;;;8.20;99.90;;;;;;5045545;28;19916;-72
2022/12/27 12:18:26;;;;;;;;;;;8.40;99.90;;;;;;5049698;28;19912;-74
2022/12/27 12:21:07;;;;;;;;;;;8.60;99.90;;;;;;5045111;28;19913;-73
2022/12/27 12:23:35;;;;;;;;;;;8.90;99.90;;;;;;5030529;28;19910;-74
2022/12/27 12:26:03;;;;;;;;;;;8.80;99.90;;;;;;5032529;28;19913;-74
2022/12/27 12:28:38;;;;;;;;;;;8.70;99.90;;;;;;5032525;28;19909;-74
2022/12/27 12:31:03;;;;;;;;;;;8.70;99.90;;;;;;5036698;28;19984;-74
2022/12/27 12:33:42;;;;;;;;;;;8.60;99.90;;;;;;5044090;28;19999;-73
2022/12/27 12:36:21;;;;;;;;;;;8.60;99.90;;;;;;5038598;28;19940;-73
2022/12/27 12:38:47;;;;;;;;;;;8.60;99.90;;;;;;5044440;28;19912;-73
2022/12/27 12:41:23;;;;;;;;;;;8.50;99.90;;;;;;5039519;28;19913;-74
2022/12/27 12:43:48;;;;;;;;;;;8.80;99.90;;;;;;5029607;28;20047;-74
2022/12/27 12:46:31;;;;;;;;;;;8.90;99.90;;;;;;5034665;28;20414;-73
2022/12/27 12:48:59;;;;;;;;;;;9.00;99.90;;;;;;5032407;28;19909;-75
2022/12/27 12:51:45;;;;;;;;;;;9.00;99.90;;;;;;5044804;28;19925;-73
2022/12/27 12:54:29;;;;;;;;;;;8.90;99.90;;;;;;5026403;28;19990;-74
2022/12/27 12:57:07;;;;;;;;;;;8.80;99.90;;;;;;5035628;28;20552;-73
2022/12/27 12:59:41;;;;;;;;;;;9.00;99.90;;;;;;5039209;28;19909;-74
2022/12/27 13:02:16;;;;;;;;;;;8.50;99.90;;;;;;5038166;28;19924;-73
2022/12/27 13:05:00;;;;;;;;;;;8.20;99.90;;;;;;5045436;28;19924;-74
2022/12/27 13:07:40;;;;;;;;;;;8.20;99.90;;;;;;5039574;28;19919;-73
2022/12/27 13:10:24;;;;;;;;;;;8.10;99.90;;;;;;5039752;28;19909;-74
2022/12/27 13:12:55;;;;;;;;;;;8.10;99.90;;;;;;5030155;28;19913;-74
2022/12/27 13:15:26;;;;;;;;;;;8.20;99.90;;;;;;5033575;28;20383;-74
2022/12/27 13:18:01;;;;;;;;;;;8.10;99.90;;;;;;5037943;28;19952;-73
2022/12/27 13:20:41;;;;;;;;;;;8.10;99.90;;;;;;5036636;28;20316;-73
2022/12/27 13:23:32;;;;;;;;;;;8.10;99.90;;;;;;5040765;28;20039;-72
2022/12/27 13:26:07;;;;;;;;;;;8.10;99.90;;;;;;5038954;28;20401;-76
2022/12/27 13:28:41;;;;;;;;;;;8.00;99.90;;;;;;5042064;28;19917;-72
2022/12/27 13:31:16;;;;;;;;;;;8.00;99.90;;;;;;5037970;28;19916;-72
2022/12/27 13:33:53;;;;;;;;;;;8.10;99.90;;;;;;5036415;28;19913;-74
2022/12/27 13:36:42;;;;;;;;;;;8.10;99.90;;;;;;5030892;28;20770;-74
2022/12/27 13:39:18;;;;;;;;;;;8.20;99.90;;;;;;5035998;28;19912;-74
2022/12/27 13:41:44;;;;;;;;;;;8.10;99.90;;;;;;5031776;28;19983;-73
2022/12/27 13:44:48;;;;;;;;;;;8.10;99.90;;;;;;5032689;28;19999;-73
2022/12/27 13:47:13;;;;;;;;;;;8.00;99.90;;;;;;5011227;28;19954;-74
2022/12/27 13:49:56;;;;;;;;;;;8.00;99.90;;;;;;5013609;28;19914;-74
2022/12/27 13:52:30;;;;;;;;;;;7.90;99.90;;;;;;5024260;28;20042;-72
2022/12/27 13:55:04;;;;;;;;;;;8.00;99.90;;;;;;5045370;28;19923;-73
2022/12/27 13:57:48;;;;;;;;;;;8.00;99.90;;;;;;5037071;28;20015;-74
2022/12/27 14:00:18;;;;;;;;;;;8.00;99.90;;;;;;5030915;28;19982;-74
2022/12/27 14:02:50;;;;;;;;;;;7.90;99.90;;;;;;5044197;28;19928;-71
2022/12/27 14:05:36;;;;;;;;;;;7.90;99.90;;;;;;5034603;28;19919;-74
2022/12/27 14:08:20;;;;;;;;;;;7.90;99.90;;;;;;5019547;28;19909;-72
2022/12/27 14:10:50;;;;;;;;;;;7.90;99.90;;;;;;5046689;28;19916;-73
2022/12/27 14:13:24;;;;;;;;;;;8.00;99.90;;;;;;5033885;28;19927;-74
2022/12/27 14:16:00;;;;;;;;;;;7.90;99.90;;;;;;5029257;28;19924;-74
2022/12/27 14:18:36;;;;;;;;;;;7.90;99.90;;;;;;5033311;28;19955;-75
2022/12/27 14:21:14;;;;;;;;;;;7.80;99.90;;;;;;5038395;28;20003;-73
2022/12/27 14:24:00;;;;;;;;;;;7.80;99.90;;;;;;5038845;28;19928;-75
2022/12/27 14:26:44;;;;;;;;;;;7.80;99.90;;;;;;5044609;28;20043;-74
2022/12/27 14:29:24;;;;;;;;;;;7.80;99.90;;;;;;5047041;28;20421;-73
2022/12/27 14:31:59;;;;;;;;;;;7.80;99.90;;;;;;5042952;28;19908;-73
2022/12/27 14:34:38;;;;;;;;;;;7.80;99.90;;;;;;5048988;28;19935;-72
2022/12/27 14:37:06;;;;;;;;;;;7.80;99.90;;;;;;5047681;28;19909;-73
2022/12/27 14:39:40;;;;;;;;;;;7.90;99.90;;;;;;5055111;28;20009;-72
2022/12/27 14:42:24;;;;;;;;;;;7.70;99.90;;;;;;5043112;28;19925;-74
2022/12/27 14:45:08;;;;;;;;;;;7.80;99.90;;;;;;5045957;28;19922;-76
2022/12/27 14:47:36;;;;;;;;;;;7.90;99.90;;;;;;5043515;28;20041;-73
2022/12/27 14:50:01;;;;;;;;;;;7.80;99.90;;;;;;5047351;28;19909;-77
2022/12/27 14:52:45;;;;;;;;;;;7.70;99.90;;;;;;5041527;28;20371;-75
2022/12/27 14:55:20;;;;;;;;;;;7.80;99.90;;;;;;5038074;28;19909;-74
2022/12/27 14:57:54;;;;;;;;;;;7.80;99.90;;;;;;5050849;28;19909;-73
2022/12/27 15:00:21;;;;;;;;;;;7.80;99.90;;;;;;5049606;28;19912;-73
2022/12/27 15:03:05;;;;;;;;;;;7.80;99.90;;;;;;5049239;28;19916;-76
2022/12/27 15:05:37;;;;;;;;;;;7.80;99.90;;;;;;5044460;28;20359;-75
2022/12/27 15:08:02;;;;;;;;;;;7.70;99.90;;;;;;5044147;28;19923;-73
2022/12/27 15:10:52;;;;;;;;;;;7.70;99.90;;;;;;5032501;28;19996;-74
2022/12/27 15:13:23;;;;;;;;;;;7.70;99.90;;;;;;5046613;28;19966;-74
2022/12/27 15:16:07;;;;;;;;;;;7.70;99.90;;;;;;5032789;28;20075;-75
2022/12/27 15:18:38;;;;;;;;;;;7.70;99.90;;;;;;5045272;28;19963;-76
2022/12/27 15:21:04;;;;;;;;;;;7.70;99.90;;;;;;5043090;28;19913;-75
2022/12/27 15:23:33;;;;;;;;;;;7.60;99.90;;;;;;5035803;28;19909;-71
2022/12/27 15:26:10;;;;;;;;;;;7.60;99.90;;;;;;5044193;28;20004;-71
2022/12/27 15:28:41;;;;;;;;;;;7.60;99.90;;;;;;5048634;28;19940;-73
2022/12/27 15:31:13;;;;;;;;;;;7.70;99.90;;;;;;5044822;28;19916;-74
2022/12/27 15:34:06;;;;;;;;;;;7.60;99.90;;;;;;5045674;28;20007;-75
2022/12/27 15:36:58;;;;;;;;;;;7.60;99.90;;;;;;5042637;28;19913;-75
2022/12/27 15:39:32;;;;;;;;;;;7.60;99.90;;;;;;5040460;28;19909;-76
2022/12/27 15:42:07;;;;;;;;;;;7.60;99.90;;;;;;5041174;28;20378;-73
2022/12/27 15:44:32;;;;;;;;;;;7.60;99.90;;;;;;5045544;28;19916;-75
2022/12/27 15:47:01;;;;;;;;;;;7.60;99.90;;;;;;5054261;28;19909;-71
2022/12/27 15:49:45;;;;;;;;;;;7.70;99.90;;;;;;5045231;28;19913;-74
2022/12/27 15:52:16;;;;;;;;;;;7.60;99.90;;;;;;5043339;28;20418;-73
2022/12/27 15:54:41;;;;;;;;;;;7.70;99.90;;;;;;5039696;28;19957;-72
2022/12/27 15:57:20;;;;;;;;;;;7.70;99.90;;;;;;5045333;28;19908;-73
2022/12/27 15:59:49;;;;;;;;;;;7.70;99.90;;;;;;5043221;28;19908;-72
2022/12/27 16:02:23;;;;;;;;;;;7.70;99.90;;;;;;5035594;28;19920;-73
2022/12/27 16:04:55;;;;;;;;;;;7.70;99.90;;;;;;5040922;28;19924;-73
2022/12/27 16:07:36;;;;;;;;;;;7.60;99.90;;;;;;5042967;28;19955;-75
2022/12/27 16:10:20;;;;;;;;;;;7.60;99.90;;;;;;5050125;28;19986;-75
2022/12/27 16:12:47;;;;;;;;;;;7.70;99.90;;;;;;5042895;28;19913;-72
2022/12/27 16:15:30;;;;;;;;;;;7.60;99.90;;;;;;5036968;28;19916;-73
2022/12/27 16:17:56;;;;;;;;;;;7.60;99.90;;;;;;5045672;28;19908;-76
2022/12/27 16:20:22;;;;;;;;;;;7.60;99.90;;;;;;5047913;28;19915;-74
2022/12/27 16:22:47;;;;;;;;;;;7.60;99.90;;;;;;5043265;28;19940;-74
2022/12/27 16:25:18;;;;;;;;;;;7.60;99.90;;;;;;5038700;28;19913;-73